Map

Track Data

SID SEASON NUMBER BASIN SUBBASIN NAME ISO_TIME NATURE LAT LON WMO_WIND WMO_PRES WMO_AGENCY TRACK_TYPE DIST2LAND LANDFALL IFLAG USA_AGENCY USA_ATCF_ID USA_LAT USA_LON USA_RECORD USA_STATUS USA_WIND USA_PRES USA_SSHS USA_R34_NE USA_R34_SE USA_R34_SW USA_R34_NW USA_R50_NE USA_R50_SE USA_R50_SW USA_R50_NW USA_R64_NE USA_R64_SE USA_R64_SW USA_R64_NW USA_POCI USA_ROCI USA_RMW USA_EYE TOKYO_LAT TOKYO_LON TOKYO_GRADE TOKYO_WIND TOKYO_PRES TOKYO_R50_DIR TOKYO_R50_LONG TOKYO_R50_SHORT TOKYO_R30_DIR TOKYO_R30_LONG TOKYO_R30_SHORT TOKYO_LAND CMA_LAT CMA_LON CMA_CAT CMA_WIND CMA_PRES HKO_LAT HKO_LON HKO_CAT HKO_WIND HKO_PRES NEWDELHI_LAT NEWDELHI_LON NEWDELHI_GRADE NEWDELHI_WIND NEWDELHI_PRES NEWDELHI_CI NEWDELHI_DP NEWDELHI_POCI REUNION_LAT REUNION_LON REUNION_TYPE REUNION_WIND REUNION_PRES REUNION_TNUM REUNION_CI REUNION_RMW REUNION_R34_NE REUNION_R34_SE REUNION_R34_SW REUNION_R34_NW REUNION_R50_NE REUNION_R50_SE REUNION_R50_SW REUNION_R50_NW REUNION_R64_NE REUNION_R64_SE REUNION_R64_SW REUNION_R64_NW BOM_LAT BOM_LON BOM_TYPE BOM_WIND BOM_PRES BOM_TNUM BOM_CI BOM_RMW BOM_R34_NE BOM_R34_SE BOM_R34_SW BOM_R34_NW BOM_R50_NE BOM_R50_SE BOM_R50_SW BOM_R50_NW BOM_R64_NE BOM_R64_SE BOM_R64_SW BOM_R64_NW BOM_ROCI BOM_POCI BOM_EYE BOM_POS_METHOD BOM_PRES_METHOD NADI_LAT NADI_LON NADI_CAT NADI_WIND NADI_PRES WELLINGTON_LAT WELLINGTON_LON WELLINGTON_WIND WELLINGTON_PRES DS824_LAT DS824_LON DS824_STAGE DS824_WIND DS824_PRES TD9636_LAT TD9636_LON TD9636_STAGE TD9636_WIND TD9636_PRES TD9635_LAT TD9635_LON TD9635_WIND TD9635_PRES TD9635_ROCI NEUMANN_LAT NEUMANN_LON NEUMANN_CLASS NEUMANN_WIND NEUMANN_PRES MLC_LAT MLC_LON MLC_CLASS MLC_WIND MLC_PRES USA_GUST BOM_GUST BOM_GUST_PER REUNION_GUST REUNION_GUST_PER USA_SEAHGT USA_SEARAD_NE USA_SEARAD_SE USA_SEARAD_SW USA_SEARAD_NW STORM_SPEED STORM_DIR
1950255N14153 1950 76 WP MM LUCRETIA:NANCY 1950-09-11 18:00:00 TS 13.5000 152.600 main 1824 1823 __O___________ -1 13.5000 152.600 0 1004 7 289
1950255N14153 1950 76 WP MM LUCRETIA:NANCY 1950-09-11 21:00:00 TS 13.6126 152.268 main 1832 1831 __P___________ -1 13.6126 152.268 0 1004 7 286
1950255N14153 1950 76 WP MM LUCRETIA:NANCY 1950-09-12 00:00:00 TS 13.7000 151.900 main 1838 1827 __O___________ -1 13.7000 151.900 0 1004 8 280
1950255N14153 1950 76 WP MM LUCRETIA:NANCY 1950-09-12 03:00:00 TS 13.7500 151.472 main 1827 1825 __P___________ -1 13.7500 151.472 0 1004 9 277
1950255N14153 1950 76 WP MM LUCRETIA:NANCY 1950-09-12 06:00:00 TS 13.8000 151.000 main 1825 1818 __O___________ -1 13.8000 151.000 0 1004 9 279
1950255N14153 1950 76 WP MM LUCRETIA:NANCY 1950-09-12 09:00:00 TS 13.8924 150.508 main 1824 1820 __P___________ -1 13.8924 150.508 0 1004 10 282
1950255N14153 1950 76 WP MM LUCRETIA:NANCY 1950-09-12 12:00:00 TS 14.0000 150.000 main 1826 1823 __O___________ -1 14.0000 150.000 0 1004 10 282
1950255N14153 1950 76 WP MM LUCRETIA:NANCY 1950-09-12 15:00:00 TS 14.0923 149.507 main 1829 1825 __P___________ -1 14.0923 149.507 0 1004 10 282
1950255N14153 1950 76 WP MM LUCRETIA:NANCY 1950-09-12 18:00:00 TS 14.2000 149.000 main 1834 1832 __O___________ -1 14.2000 149.000 0 1004 10 284
1950255N14153 1950 76 WP MM LUCRETIA:NANCY 1950-09-12 21:00:00 TS 14.3422 148.487 main 1841 1841 __P___________ -1 14.3422 148.487 0 1004 11 286
1950255N14153 1950 76 WP MM LUCRETIA:NANCY 1950-09-13 00:00:00 TS 14.5000 147.900 main 1860 1859 __O___________ -1 14.5000 147.900 0 1004 13 284
1950255N14153 1950 76 WP MM LUCRETIA:NANCY 1950-09-13 03:00:00 TS 14.6576 147.173 main 1882 1882 __P___________ -1 14.6576 147.173 0 1004 15 282
1950255N14153 1950 76 WP MM LUCRETIA:NANCY 1950-09-13 06:00:00 TS 14.8000 146.400 main 1893 1893 __O___________ -1 14.8000 146.400 0 1004 14 280
1950255N14153 1950 76 WP MM LUCRETIA:NANCY 1950-09-13 09:00:00 TS 14.9071 145.700 main 1907 1907 __P___________ -1 14.9071 145.700 0 1004 14 278
1950255N14153 1950 76 WP MM LUCRETIA:NANCY 1950-09-13 12:00:00 TS 15.0000 145.000 main 1923 1923 __O___________ -1 15.0000 145.000 0 1004 14 278
1950255N14153 1950 76 WP MM LUCRETIA:NANCY 1950-09-13 15:00:00 TS 15.1148 144.258 main 1943 1943 __P___________ -1 15.1148 144.258 0 1004 15 278
1950255N14153 1950 76 WP MM LUCRETIA:NANCY 1950-09-13 18:00:00 TS 15.2000 143.500 main 1967 1899 __O___________ -1 15.2000 143.500 0 1004 15 274
1950255N14153 1950 76 WP MM LUCRETIA:NANCY 1950-09-13 21:00:00 TS 15.2073 142.742 main 1888 1814 __P___________ -1 15.2073 142.742 0 1004 14 270
1950255N14153 1950 76 WP MM LUCRETIA:NANCY 1950-09-14 00:00:00 TS 15.2000 142.000 main 1814 1740 __O___________ -1 15.2000 142.000 1 29 1004 14 272
1950255N14153 1950 76 WP MM LUCRETIA:NANCY 1950-09-14 03:00:00 TS 15.2496 141.300 main 1740 1667 __P___________ -1 15.2496 141.300 1 33 1003 14 274
1950255N14153 1950 76 WP MM LUCRETIA:NANCY 1950-09-14 06:00:00 TS 15.3000 140.600 main 1667 1593 __O___________ -1 15.3000 140.600 2 38 1002 14 272
1950255N14153 1950 76 WP MM LUCRETIA:NANCY 1950-09-14 09:00:00 TS 15.2923 139.857 main 1593 1509 __P___________ -1 15.2923 139.857 2 38 1002 14 270
1950255N14153 1950 76 WP MM LUCRETIA:NANCY 1950-09-14 12:00:00 TS 15.3000 139.100 main 1509 1438 __O___________ -1 15.3000 139.100 2 38 1002 15 273
1950255N14153 1950 76 WP MM LUCRETIA:NANCY 1950-09-14 15:00:00 TS 15.3624 138.335 main 1428 1357 __P___________ -1 15.3624 138.335 2 38 1002 15 278
1950255N14153 1950 76 WP MM LUCRETIA:NANCY 1950-09-14 18:00:00 TS 15.5000 137.600 main 1357 1301 __O___________ -1 15.5000 137.600 2 38 1002 14 284
1950255N14153 1950 76 WP MM LUCRETIA:NANCY 1950-09-14 21:00:00 TS 15.6972 136.935 main 1291 1240 __P___________ -1 15.6972 136.935 2 38 1001 14 292
1950255N14153 1950 76 WP MM LUCRETIA:NANCY 1950-09-15 00:00:00 TS 16.0000 136.300 main 1240 1195 __O___________ -1 16.0000 136.300 2 38 1000 15 301
1950255N14153 1950 76 WP MM LUCRETIA:NANCY 1950-09-15 03:00:00 TS 16.4426 135.620 main 1185 1149 __P___________ -1 16.4426 135.620 2 38 1000 15 306
1950255N14153 1950 76 WP MM LUCRETIA:NANCY 1950-09-15 06:00:00 TS 16.9000 135.000 main 1149 1118 __O___________ -1 16.9000 135.000 2 38 1000 13 306
1950255N14153 1950 76 WP MM LUCRETIA:NANCY 1950-09-15 09:00:00 TS 17.2073 134.505 main 1118 1098 __P___________ -1 17.2073 134.505 2 38 999 11 305
1950255N14153 1950 76 WP MM LUCRETIA:NANCY 1950-09-15 12:00:00 TS 17.5000 134.100 main 1098 1080 __O___________ -1 17.5000 134.100 2 38 998 10 311
1950255N14153 1950 76 WP MM LUCRETIA:NANCY 1950-09-15 15:00:00 TS 17.8775 133.705 main 1087 1075 __P___________ -1 17.8775 133.705 2 38 997 10 320
1950255N14153 1950 76 WP MM LUCRETIA:NANCY 1950-09-15 18:00:00 TS 18.3000 133.400 main 1080 1075 __O___________ -1 18.3000 133.400 2 38 997 10 331
1950255N14153 1950 76 WP MM LUCRETIA:NANCY 1950-09-15 21:00:00 TS 18.7649 133.183 main 1087 1083 __P___________ -1 18.7649 133.183 2 38 996 9 342
1950255N14153 1950 76 WP MM LUCRETIA:NANCY 1950-09-16 00:00:00 TS 19.2000 133.100 main 1100 1100 __O___________ -1 19.2000 133.100 2 38 995 8 358
1950255N14153 1950 76 WP MM LUCRETIA:NANCY 1950-09-16 03:00:00 TS 19.5450 133.155 main 1127 1127 __P___________ -1 19.5450 133.155 2 38 994 6 18
1950255N14153 1950 76 WP MM LUCRETIA:NANCY 1950-09-16 06:00:00 TS 19.8000 133.300 main 1154 1154 __O___________ -1 19.8000 133.300 2 38 994 5 33
1950255N14153 1950 76 WP MM LUCRETIA:NANCY 1950-09-16 09:00:00 TS 19.9650 133.443 main 1175 1175 __P___________ -1 19.9650 133.443 2 43 993 4 43
1950255N14153 1950 76 WP MM LUCRETIA:NANCY 1950-09-16 12:00:00 TS 20.1000 133.600 main 1198 1198 __O___________ -1 20.1000 133.600 3 48 992 4 43
1950255N14153 1950 76 WP MM LUCRETIA:NANCY 1950-09-16 15:00:00 TS 20.2850 133.765 main 1224 1215 __P___________ -1 20.2850 133.765 3 48 991 5 35
1950255N14153 1950 76 WP MM LUCRETIA:NANCY 1950-09-16 18:00:00 TS 20.5000 133.900 main 1215 1196 __O___________ -1 20.5000 133.900 3 48 991 5 23
1950255N14153 1950 76 WP MM LUCRETIA:NANCY 1950-09-16 21:00:00 TS 20.7425 133.973 main 1196 1164 __P___________ -1 20.7425 133.973 3 48 990 5 11
1950255N14153 1950 76 WP MM LUCRETIA:NANCY 1950-09-17 00:00:00 TS 21.0000 134.000 main 1164 1142 __O___________ -1 21.0000 134.000 3 48 990 5 3
1950255N14153 1950 76 WP MM LUCRETIA:NANCY 1950-09-17 03:00:00 TS 21.2575 134.008 main 1132 1121 __P___________ -1 21.2575 134.008 3 48 987 4 6
1950255N14153 1950 76 WP MM LUCRETIA:NANCY 1950-09-17 06:00:00 TS 21.4143 134.043 main 1121 1095 O_O______O_O__ jtwc_wp WP101950 21.3000 134.100 45 0 21.5000 134.000 3 48 985 21.3000 134.100 TC 45 21.3000 134.100 45 996 180 5 21
1950255N14153 1950 76 WP MM LUCRETIA:NANCY 1950-09-17 09:00:00 TS 21.7421 134.211 main 1095 1059 P_P______P_P__ WP101950 21.7651 134.357 45 0 21.7075 133.993 3 48 985 21.7651 134.357 TC 45 21.7651 134.357 45 994 270 8 26
1950255N14153 1950 76 WP MM LUCRETIA:NANCY 1950-09-17 12:00:00 TS 22.1077 134.415 main 1059 1024 O_O______O_O__ jtwc_wp WP101950 22.2000 134.600 45 0 21.9000 134.000 3 48 985 22.2000 134.600 TC 45 22.2000 134.600 45 993 360 8 27
1950255N14153 1950 76 WP MM LUCRETIA:NANCY 1950-09-17 15:00:00 TS 22.4731 134.620 main 1024 1001 P_P______P_P__ WP101950 22.5925 134.815 47 0 22.1150 134.035 3 53 983 22.5925 134.815 TC 47 22.5925 134.815 47 992 390 8 25
1950255N14153 1950 76 WP MM LUCRETIA:NANCY 1950-09-17 18:00:00 TS 22.8250 134.775 main 1001 964 O_O______O_O__ jtwc_wp WP101950 23.0000 135.000 50 0 22.3000 134.100 3 58 982 23.0000 135.000 TC 50 23.0000 135.000 50 991 420 8 21
1950255N14153 1950 76 WP MM LUCRETIA:NANCY 1950-09-17 21:00:00 TS 23.2062 134.924 main 964 928 P_P______P_P__ WP101950 23.4700 135.172 52 0 22.4150 134.178 3 58 981 23.4700 135.172 TC 52 23.4700 135.172 52 990 450 8 18
1950255N14153 1950 76 WP MM LUCRETIA:NANCY 1950-09-18 00:00:00 TS 23.6250 135.050 main 933 883 O_O______O_O__ jtwc_wp WP101950 24.0000 135.300 55 0 22.5000 134.300 3 58 980 24.0000 135.300 TC 55 24.0000 135.300 55 989 480 9 13
1950255N14153 1950 76 WP MM LUCRETIA:NANCY 1950-09-18 03:00:00 TS 24.1000 135.151 main 888 840 P_P______P_P__ WP101950 24.6000 135.380 55 0 22.5999 134.463 3 53 982 24.6000 135.380 TC 55 24.6000 135.380 55 988 330 10 10
1950255N14153 1950 76 WP MM LUCRETIA:NANCY 1950-09-18 06:00:00 TS 24.5750 135.225 main 840 807 O_O______O_O__ jtwc_wp WP101950 25.2000 135.400 55 0 22.7000 134.700 3 48 985 25.2000 135.400 TC 55 25.2000 135.400 55 987 180 9 6
1950255N14153 1950 76 WP MM LUCRETIA:NANCY 1950-09-18 09:00:00 TS 24.9862 135.257 main 807 770 P_P______P_P__ WP101950 25.7150 135.336 55 0 22.8000 135.020 3 43 987 25.7150 135.336 TC 55 25.7150 135.336 55 988 180 8 6
1950255N14153 1950 76 WP MM LUCRETIA:NANCY 1950-09-18 12:00:00 TS 25.3750 135.325 main 770 741 O_O______O_O__ jtwc_wp WP101950 26.2000 135.300 55 0 22.9000 135.400 2 38 990 26.2000 135.300 TC 55 26.2000 135.300 55 990 180 8 7
1950255N14153 1950 76 WP MM LUCRETIA:NANCY 1950-09-18 15:00:00 TS 25.7300 135.366 main 746 719 P_P______P_P__ WP101950 26.6376 135.229 50 0 23.0073 135.777 2 38 992 26.6376 135.229 TC 50 26.6376 135.229 50 990 180 9 26
1950255N14153 1950 76 WP MM LUCRETIA:NANCY 1950-09-18 18:00:00 TS 26.1750 135.750 main 721 712 O_O______O_O__ jtwc_wp WP101950 27.2000 135.600 45 0 23.1000 136.200 2 38 995 27.2000 135.600 TC 45 27.2000 135.600 45 990 180 17 48
1950255N14153 1950 76 WP MM LUCRETIA:NANCY 1950-09-18 21:00:00 TS 26.8653 136.779 main 725 691 P_P______P_P__ WP101950 28.1012 136.805 45 0 23.1576 136.700 2 33 997 28.1012 136.805 TC 45 28.1012 136.805 45 990 180 26 58
1950255N14153 1950 76 WP MM LUCRETIA:NANCY 1950-09-19 00:00:00 TS 27.5500 138.175 main 686 683 O_O______O_O__ jtwc_wp WP101950 29.0000 138.500 45 0 23.2000 137.200 1 29 1000 29.0000 138.500 TC 45 29.0000 138.500 45 990 180 28 65
1950255N14153 1950 76 WP MM LUCRETIA:NANCY 1950-09-19 03:00:00 TS 28.0140 139.598 main 703 703 P_P______P_P__ WP101950 29.6028 140.256 42 0 23.2475 137.625 1 1001 29.6028 140.256 TC 42 29.6028 140.256 42 993 150 26 73
1950255N14153 1950 76 WP MM LUCRETIA:NANCY 1950-09-19 06:00:00 TS 28.3250 141.000 main 732 O_O______O_O__ jtwc_wp WP101950 30.0000 142.000 40 0 23.3000 138.000 0 1002 30.0000 142.000 TC 40 30.0000 142.000 40 996 120 25 76

Digital Typhoon Data and Search

About IBTrACS Database

This database is a web-friendly format of International Best Track Archive for Climate Stewardship (IBTrACS), a global best track data archive curated by NOAA dating back to 1842.

Updated: 2021-10-27